Time;durP1;ratioP1;P1;durP2;ratioP2;P2;SDS_P1;SDS_P2;PMS_P1;PMS_P2;Temp;Humidity;BMP_temperature;BMP_pressure;BME280_temperature;BME280_humidity;BME280_pressure;Samples;Min_cycle;Max_cycle;Signal;HPM_P1;HPM_P2
2021/09/13 00:00:29;;;;;;;24.98;16.80;;;16.20;99.90;;;;;;5018827;28;20195;-91
2021/09/13 00:02:55;;;;;;;24.23;17.55;;;16.10;99.90;;;;;;5036051;28;20660;-90
2021/09/13 00:05:22;;;;;;;23.23;17.83;;;16.00;99.90;;;;;;5036983;28;20215;-89
2021/09/13 00:07:48;;;;;;;27.42;18.42;;;16.10;99.90;;;;;;5037268;28;20183;-92
2021/09/13 00:10:14;;;;;;;29.25;18.30;;;16.10;99.90;;;;;;5036854;28;20184;-93
2021/09/13 00:12:39;;;;;;;24.25;17.17;;;16.00;99.90;;;;;;5035570;28;20268;-92
2021/09/13 00:15:07;;;;;;;22.48;17.15;;;16.00;99.90;;;;;;5019371;28;20231;-92
2021/09/13 00:17:33;;;;;;;27.35;16.92;;;16.00;99.90;;;;;;5036068;28;20236;-92
2021/09/13 00:19:59;;;;;;;23.98;16.58;;;15.90;99.90;;;;;;5037642;28;20177;-92
2021/09/13 00:22:24;;;;;;;23.33;17.33;;;15.90;99.90;;;;;;5036737;28;20675;-91
2021/09/13 00:24:50;;;;;;;31.75;17.92;;;15.90;99.90;;;;;;5035189;28;20187;-91
2021/09/13 00:27:16;;;;;;;24.10;16.63;;;15.80;99.90;;;;;;5036150;28;20177;-91
2021/09/13 00:29:42;;;;;;;28.95;16.75;;;15.70;99.90;;;;;;5035500;28;20638;-91
2021/09/13 00:32:07;;;;;;;23.25;16.42;;;15.70;99.90;;;;;;5035226;28;20234;-90
2021/09/13 00:34:35;;;;;;;24.30;16.58;;;15.70;99.90;;;;;;5035693;28;20673;-91
2021/09/13 00:37:02;;;;;;;22.63;16.48;;;15.60;99.90;;;;;;5036030;28;20177;-93
2021/09/13 00:39:28;;;;;;;21.95;16.98;;;15.60;99.90;;;;;;5034509;28;20701;-91
2021/09/13 00:41:54;;;;;;;25.88;17.63;;;15.60;99.90;;;;;;5034851;28;20227;-92
2021/09/13 00:44:19;;;;;;;27.00;17.48;;;15.50;99.90;;;;;;5034844;28;20185;-92
2021/09/13 00:46:45;;;;;;;25.10;17.65;;;15.50;99.90;;;;;;5035640;28;21085;-91
2021/09/13 00:49:11;;;;;;;25.00;17.65;;;15.60;99.90;;;;;;5034301;28;20695;-91
2021/09/13 00:51:36;;;;;;;25.05;17.63;;;15.30;99.90;;;;;;5035286;28;20540;-91
2021/09/13 00:54:03;;;;;;;25.15;16.48;;;15.50;99.90;;;;;;5035924;28;20195;-91
2021/09/13 00:56:29;;;;;;;23.63;16.80;;;15.40;99.90;;;;;;5034119;28;20536;-91
2021/09/13 00:58:54;;;;;;;28.42;17.98;;;15.40;99.90;;;;;;5034474;28;20191;-92
2021/09/13 01:01:20;;;;;;;29.30;17.73;;;15.40;99.90;;;;;;5017967;28;20185;-91
2021/09/13 01:03:46;;;;;;;31.13;20.17;;;15.80;99.90;;;;;;5034266;28;20268;-91
2021/09/13 01:06:12;;;;;;;30.17;19.55;;;15.50;99.90;;;;;;5034658;28;20542;-91
2021/09/13 01:08:38;;;;;;;28.52;18.75;;;;;;;;;;5035278;28;20180;-93
2021/09/13 01:11:04;;;;;;;26.58;19.75;;;15.40;99.90;;;;;;5034940;28;20576;-91
2021/09/13 01:13:30;;;;;;;30.73;19.63;;;15.30;99.90;;;;;;5035775;28;20252;-91
2021/09/13 01:15:56;;;;;;;31.02;20.25;;;15.40;99.90;;;;;;5034831;28;20287;-91
2021/09/13 01:18:22;;;;;;;31.67;20.05;;;;;;;;;;5018845;28;20319;-91
2021/09/13 01:20:47;;;;;;;29.55;19.23;;;15.60;99.90;;;;;;5035941;28;20639;-91
2021/09/13 01:23:26;;;;;;;33.05;20.08;;;15.40;99.90;;;;;;5035301;28;20275;-91
2021/09/13 01:25:53;;;;;;;30.70;20.35;;;15.50;99.90;;;;;;5035708;28;20175;-91
2021/09/13 01:28:18;;;;;;;34.53;21.02;;;15.40;99.90;;;;;;5036086;28;20260;-92
2021/09/13 01:30:44;;;;;;;33.67;20.63;;;15.10;99.90;;;;;;5034505;28;20212;-92
2021/09/13 01:33:10;;;;;;;32.72;21.15;;;15.40;99.90;;;;;;5037147;28;20191;-93
2021/09/13 01:35:36;;;;;;;34.38;21.45;;;;;;;;;;5035663;28;20211;-91
2021/09/13 01:38:02;;;;;;;33.17;20.63;;;14.90;99.90;;;;;;5036113;28;20233;-92
2021/09/13 01:40:28;;;;;;;30.90;21.35;;;;;;;;;;5035281;28;20207;-92
2021/09/13 01:42:57;;;;;;;32.55;21.10;;;15.40;99.90;;;;;;5039594;28;20187;-92
2021/09/13 01:45:23;;;;;;;33.67;21.55;;;15.30;99.90;;;;;;5049517;28;20181;-92
2021/09/13 01:47:49;;;;;;;34.72;22.02;;;15.30;99.90;;;;;;5052428;28;20250;-92
2021/09/13 01:50:15;;;;;;;32.58;20.83;;;15.30;99.90;;;;;;5022503;28;20216;-91
2021/09/13 01:52:41;;;;;;;37.70;21.88;;;15.20;99.90;;;;;;5034769;28;20263;-91
2021/09/13 01:55:07;;;;;;;33.65;21.02;;;15.30;99.90;;;;;;5043287;28;20200;-92
2021/09/13 01:57:33;;;;;;;33.72;22.35;;;;;;;;;;5055100;28;20177;-85
2021/09/13 01:59:59;;;;;;;36.33;21.85;;;15.40;99.90;;;;;;5056183;28;20180;-92
2021/09/13 02:02:25;;;;;;;36.92;21.75;;;;;;;;;;5051806;28;20185;-92
2021/09/13 02:04:50;;;;;;;34.40;21.23;;;15.50;99.90;;;;;;5019303;28;20239;-92
2021/09/13 02:07:16;;;;;;;39.53;21.00;;;15.20;99.90;;;;;;5033421;28;20168;-92
2021/09/13 02:09:42;;;;;;;35.83;22.42;;;;;;;;;;5032822;28;20184;-91
2021/09/13 02:12:08;;;;;;;32.53;20.48;;;15.40;99.90;;;;;;5034144;28;20314;-93
2021/09/13 02:14:34;;;;;;;33.08;20.90;;;;;;;;;;5033299;28;20212;-87
2021/09/13 02:16:59;;;;;;;28.77;20.35;;;15.00;99.90;;;;;;5035168;28;20180;-91
2021/09/13 02:19:25;;;;;;;34.78;21.33;;;;;;;;;;5037798;28;20169;-92
2021/09/13 02:21:51;;;;;;;36.00;20.85;;;;;;;;;;5036876;28;20184;-92
2021/09/13 02:24:17;;;;;;;30.77;20.33;;;15.20;99.90;;;;;;5034539;28;20187;-92
2021/09/13 02:26:43;;;;;;;28.90;20.52;;;;;;;;;;5033037;28;20542;-92
2021/09/13 02:29:09;;;;;;;36.20;20.17;;;15.20;99.90;;;;;;5033216;28;20592;-93
2021/09/13 02:31:34;;;;;;;30.90;20.23;;;15.20;99.90;;;;;;5033141;28;20186;-93
2021/09/13 02:34:00;;;;;;;32.10;19.55;;;15.20;99.90;;;;;;5032856;28;20176;-92
2021/09/13 02:36:26;;;;;;;37.33;21.60;;;;;;;;;;5033225;28;20533;-93
2021/09/13 02:38:52;;;;;;;31.90;20.60;;;;;;;;;;5033461;28;20227;-93
2021/09/13 02:41:18;;;;;;;33.10;21.92;;;;;;;;;;5034000;28;20180;-93
2021/09/13 02:43:44;;;;;;;30.27;20.48;;;15.20;99.90;;;;;;5033693;28;20187;-91
2021/09/13 02:46:09;;;;;;;34.53;21.08;;;15.20;99.90;;;;;;5016487;28;20545;-92
2021/09/13 02:48:35;;;;;;;38.13;22.15;;;15.30;99.90;;;;;;5033820;28;20631;-92
2021/09/13 02:51:01;;;;;;;33.42;20.48;;;;;;;;;;5033550;28;20188;-93
2021/09/13 02:53:27;;;;;;;35.28;21.15;;;15.30;99.90;;;;;;5033606;28;20168;-92
2021/09/13 02:55:53;;;;;;;32.30;20.08;;;15.30;99.90;;;;;;5032272;28;20266;-92
2021/09/13 02:58:19;;;;;;;34.63;21.90;;;;;;;;;;5033675;28;20173;-92
2021/09/13 03:00:45;;;;;;;32.40;20.90;;;;;;;;;;5032440;28;20545;-92
2021/09/13 03:03:11;;;;;;;33.88;21.88;;;15.40;99.90;;;;;;5033750;28;20176;-92
2021/09/13 03:05:36;;;;;;;35.28;21.33;;;15.10;99.90;;;;;;5032910;28;20210;-92
2021/09/13 03:08:02;;;;;;;31.83;20.70;;;;;;;;;;5032593;28;20230;-92
2021/09/13 03:10:28;;;;;;;33.67;21.17;;;15.20;99.90;;;;;;5034173;28;20184;-92
2021/09/13 03:12:54;;;;;;;32.40;21.55;;;;;;;;;;5038067;28;20176;-93
2021/09/13 03:15:20;;;;;;;32.95;21.13;;;15.30;99.90;;;;;;5038625;28;20216;-92
2021/09/13 03:17:46;;;;;;;33.22;20.60;;;15.60;99.90;;;;;;5039118;28;20616;-90
2021/09/13 03:20:11;;;;;;;33.72;21.98;;;15.40;99.90;;;;;;5046032;28;20180;-90
2021/09/13 03:22:38;;;;;;;31.10;21.08;;;;;;;;;;5047411;28;20208;-91
2021/09/13 03:25:04;;;;;;;31.25;20.67;;;15.20;99.90;;;;;;5048064;28;20180;-90
2021/09/13 03:27:30;;;;;;;32.63;22.00;;;15.20;99.90;;;;;;5045723;28;20184;-90
2021/09/13 03:29:56;;;;;;;32.63;21.85;;;15.00;99.90;;;;;;5041090;28;20201;-91
2021/09/13 03:32:22;;;;;;;31.52;21.27;;;15.20;99.90;;;;;;5036005;28;20590;-92
2021/09/13 03:34:48;;;;;;;38.65;23.60;;;;;;;;;;5036257;28;20573;-92
2021/09/13 03:37:13;;;;;;;35.30;22.30;;;14.80;99.90;;;;;;5037225;28;20184;-92
2021/09/13 03:39:39;;;;;;;31.77;20.92;;;15.20;99.90;;;;;;5036135;28;20189;-93
2021/09/13 03:42:06;;;;;;;36.33;21.60;;;15.20;99.90;;;;;;5036633;28;20331;-91
2021/09/13 03:44:31;;;;;;;35.45;22.33;;;15.10;99.90;;;;;;5035597;28;20181;-90
2021/09/13 03:46:57;;;;;;;33.92;22.02;;;15.20;99.90;;;;;;5036376;28;20306;-91
2021/09/13 03:49:22;;;;;;;33.55;22.27;;;15.20;99.90;;;;;;5035425;28;20262;-92
2021/09/13 03:51:48;;;;;;;33.47;22.00;;;15.20;99.90;;;;;;5035819;28;20181;-90
2021/09/13 03:54:14;;;;;;;33.78;22.27;;;15.20;99.90;;;;;;5019313;28;20177;-91
2021/09/13 03:56:40;;;;;;;36.70;22.30;;;;;;;;;;5035366;28;20177;-93
2021/09/13 03:59:06;;;;;;;36.13;22.60;;;15.30;99.90;;;;;;5035570;28;20223;-93
2021/09/13 04:01:32;;;;;;;37.03;21.83;;;17.30;99.90;;;;;;5035456;28;20205;-92
2021/09/13 04:04:00;;;;;;;39.13;23.75;;;15.20;99.90;;;;;;5035526;28;20625;-90
2021/09/13 04:11:54;;;;;;;40.10;23.08;;;14.80;99.90;;;;;;5035735;28;20192;-89
2021/09/13 04:14:21;;;;;;;39.22;23.65;;;14.90;99.90;;;;;;5027183;28;20181;-90
2021/09/13 04:16:46;;;;;;;33.72;22.65;;;15.20;99.90;;;;;;5029829;28;20184;-90
2021/09/13 04:19:12;;;;;;;34.03;22.52;;;15.20;99.90;;;;;;5031950;28;20268;-88
2021/09/13 04:21:39;;;;;;;36.65;22.65;;;17.20;99.90;;;;;;5031064;28;20185;-90
2021/09/13 04:24:05;;;;;;;37.03;23.52;;;15.30;99.90;;;;;;5025315;28;20200;-90
2021/09/13 04:26:30;;;;;;;40.13;23.15;;;15.40;99.90;;;;;;5034856;28;20208;-86
2021/09/13 04:28:56;;;;;;;37.42;23.65;;;15.30;99.90;;;;;;5035786;28;20243;-88
2021/09/13 04:31:22;;;;;;;40.13;23.73;;;15.30;99.90;;;;;;5033966;28;20235;-87
2021/09/13 04:33:48;;;;;;;38.10;23.52;;;15.40;99.90;;;;;;5031432;28;20259;-87
2021/09/13 04:36:14;;;;;;;33.00;21.67;;;;;;;;;;5032769;28;20291;-87
2021/09/13 04:38:39;;;;;;;31.48;21.73;;;15.60;99.90;;;;;;5035064;28;20715;-86
2021/09/13 04:41:05;;;;;;;32.70;22.02;;;;;;;;;;5033986;28;20184;-89
2021/09/13 04:43:31;;;;;;;37.83;23.23;;;15.60;99.90;;;;;;5033161;28;20243;-88
2021/09/13 04:45:57;;;;;;;39.90;22.92;;;15.20;99.90;;;;;;5034574;28;20276;-88
2021/09/13 04:48:24;;;;;;;37.42;23.27;;;15.40;99.90;;;;;;5033353;28;20224;-88
2021/09/13 04:50:52;;;;;;;37.13;22.98;;;15.80;99.90;;;;;;5034780;28;20184;-88
2021/09/13 04:53:18;;;;;;;35.95;22.50;;;15.70;99.90;;;;;;5026825;28;20184;-89
2021/09/13 04:55:44;;;;;;;37.53;22.77;;;;;;;;;;5037522;28;20219;-86
2021/09/13 04:58:09;;;;;;;39.30;23.70;;;15.50;99.90;;;;;;5031301;28;20715;-88
2021/09/13 05:00:35;;;;;;;40.25;23.10;;;15.80;99.90;;;;;;5021695;28;20239;-86
2021/09/13 05:03:00;;;;;;;35.50;22.98;;;15.80;99.90;;;;;;5029026;28;20231;-89
2021/09/13 05:05:26;;;;;;;36.20;23.58;;;15.50;99.90;;;;;;5032560;28;20664;-88
2021/09/13 05:07:52;;;;;;;35.00;22.58;;;15.60;99.90;;;;;;5011376;28;20189;-88
2021/09/13 05:10:18;;;;;;;34.97;22.67;;;15.60;99.90;;;;;;5014145;28;20184;-87
2021/09/13 05:12:43;;;;;;;36.15;22.95;;;15.60;99.90;;;;;;5015476;28;20651;-87
2021/09/13 05:15:09;;;;;;;36.85;23.30;;;15.70;99.90;;;;;;5014786;28;20243;-88
2021/09/13 05:17:35;;;;;;;36.72;23.45;;;15.70;99.90;;;;;;5013719;28;20236;-89
2021/09/13 05:20:01;;;;;;;37.92;23.02;;;16.00;99.90;;;;;;5031073;28;20676;-88
2021/09/13 05:22:27;;;;;;;34.20;22.17;;;15.80;99.90;;;;;;5033372;28;20647;-85
2021/09/13 05:24:52;;;;;;;36.95;23.65;;;16.10;99.90;;;;;;5034007;28;20629;-90
2021/09/13 05:27:18;;;;;;;38.60;22.92;;;15.80;99.90;;;;;;5024903;28;20195;-87
2021/09/13 05:29:44;;;;;;;33.78;23.00;;;;;;;;;;5016036;28;20181;-87
2021/09/13 05:32:10;;;;;;;33.33;22.02;;;15.90;99.90;;;;;;5033351;28;20299;-86
2021/09/13 05:34:36;;;;;;;39.58;22.33;;;;;;;;;;5006796;28;20656;-86
2021/09/13 05:37:02;;;;;;;32.85;21.75;;;;;;;;;;5023323;28;20181;-86
2021/09/13 05:39:28;;;;;;;43.60;21.92;;;16.00;99.90;;;;;;5030696;28;20181;-86
2021/09/13 05:41:53;;;;;;;33.13;21.90;;;16.00;99.90;;;;;;5028484;28;20633;-88
2021/09/13 05:44:19;;;;;;;37.83;22.80;;;16.10;99.90;;;;;;5031235;28;20231;-86
2021/09/13 05:46:45;;;;;;;34.65;22.35;;;16.20;99.90;;;;;;5013954;28;20188;-87
2021/09/13 05:49:11;;;;;;;34.47;22.38;;;16.20;99.90;;;;;;5031278;28;20176;-88
2021/09/13 05:51:40;;;;;;;34.15;22.42;;;16.30;99.90;;;;;;5030370;28;20661;-86
2021/09/13 05:54:06;;;;;;;30.55;22.08;;;16.10;99.90;;;;;;5022991;28;20223;-87
2021/09/13 05:56:31;;;;;;;40.80;23.63;;;16.30;99.90;;;;;;5033812;28;20591;-87
2021/09/13 05:58:57;;;;;;;40.97;23.27;;;;;;;;;;5032528;28;20180;-84
2021/09/13 06:01:23;;;;;;;31.20;21.90;;;;;;;;;;5034084;28;20181;-86
2021/09/13 06:03:49;;;;;;;34.05;22.85;;;16.30;99.90;;;;;;5032796;28;20203;-86
2021/09/13 06:06:15;;;;;;;33.85;21.98;;;16.60;99.90;;;;;;5022623;28;20643;-86
2021/09/13 06:08:41;;;;;;;32.88;23.20;;;16.50;99.90;;;;;;5014708;28;20588;-86
2021/09/13 06:11:06;;;;;;;32.40;21.88;;;16.80;99.90;;;;;;5029255;28;20185;-88
2021/09/13 06:13:33;;;;;;;32.47;21.88;;;;;;;;;;5025011;28;20271;-88
2021/09/13 06:15:59;;;;;;;36.05;22.88;;;;;;;;;;5032383;28;20311;-83
2021/09/13 06:18:24;;;;;;;34.50;23.60;;;17.10;99.90;;;;;;5032549;28;20236;-86
2021/09/13 06:20:50;;;;;;;38.45;22.80;;;;;;;;;;5032730;28;20176;-88
2021/09/13 06:23:16;;;;;;;34.58;22.58;;;16.50;99.90;;;;;;5022960;28;20188;-90
2021/09/13 06:25:42;;;;;;;43.65;24.45;;;;;;;;;;5007003;28;20595;-90
2021/09/13 06:28:08;;;;;;;35.42;23.38;;;17.30;99.90;;;;;;5023677;28;20264;-89
2021/09/13 06:30:34;;;;;;;30.13;22.90;;;17.10;99.90;;;;;;5033179;28;20252;-93
2021/09/13 06:33:00;;;;;;;41.40;23.50;;;;;;;;;;5049052;28;20617;-88
2021/09/13 06:35:25;;;;;;;34.65;23.23;;;17.20;99.90;;;;;;5032688;28;20212;-87
2021/09/13 06:37:51;;;;;;;37.22;23.35;;;17.20;99.90;;;;;;5014783;28;20184;-87
2021/09/13 06:40:17;;;;;;;34.45;23.73;;;;;;;;;;5031873;28;20181;-88
2021/09/13 06:42:43;;;;;;;37.65;23.30;;;17.40;99.90;;;;;;5032211;28;20176;-85
2021/09/13 06:45:11;;;;;;;35.30;24.40;;;17.10;99.90;;;;;;5031611;28;20246;-85
2021/09/13 06:47:44;;;;;;;36.67;24.45;;;17.30;99.90;;;;;;5033023;28;20179;-87
2021/09/13 06:50:12;;;;;;;34.75;24.95;;;17.20;99.90;;;;;;5016587;28;20281;-88
2021/09/13 06:52:39;;;;;;;38.35;26.05;;;17.90;99.90;;;;;;5032730;28;20629;-87
2021/09/13 06:55:06;;;;;;;37.47;26.05;;;17.70;99.90;;;;;;5029890;28;20362;-87
2021/09/13 06:57:35;;;;;;;41.13;27.48;;;18.10;99.90;;;;;;5030071;28;20274;-87
2021/09/13 07:00:03;;;;;;;39.95;27.50;;;17.90;99.90;;;;;;5031020;28;20235;-86
2021/09/13 07:02:30;;;;;;;49.38;34.30;;;18.00;99.90;;;;;;5031520;28;20177;-85
2021/09/13 07:04:56;;;;;;;45.92;33.20;;;18.40;99.90;;;;;;5029808;28;20184;-87
2021/09/13 07:07:22;;;;;;;46.53;30.30;;;;;;;;;;5030408;28;20186;-87
2021/09/13 07:09:48;;;;;;;43.80;29.95;;;;;;;;;;5032020;28;20180;-90
2021/09/13 07:12:14;;;;;;;38.92;28.10;;;;;;;;;;5032908;28;20185;-88
2021/09/13 07:14:39;;;;;;;37.83;27.02;;;19.00;99.90;;;;;;5032020;28;20205;-89
2021/09/13 07:17:05;;;;;;;40.15;27.20;;;;;;;;;;5019599;28;20265;-85
2021/09/13 07:19:31;;;;;;;39.60;26.52;;;;;;;;;;5043587;28;20173;-89
2021/09/13 07:21:57;;;;;;;46.15;27.73;;;18.50;99.90;;;;;;5040229;28;20216;-88
2021/09/13 07:24:23;;;;;;;40.97;27.20;;;18.90;99.90;;;;;;5034708;28;20253;-88
2021/09/13 07:26:49;;;;;;;39.42;28.60;;;19.50;99.90;;;;;;5033500;28;20238;-88
2021/09/13 07:29:15;;;;;;;40.25;29.70;;;;;;;;;;5037909;28;20188;-89
2021/09/13 07:31:41;;;;;;;119.20;88.45;;;19.70;99.90;;;;;;5042698;28;20184;-89
2021/09/13 07:34:07;;;;;;;86.88;59.70;;;;;;;;;;5043415;28;20200;-85
2021/09/13 07:36:33;;;;;;;73.32;51.47;;;18.90;99.90;;;;;;5036102;28;20239;-90
2021/09/13 07:38:59;;;;;;;67.30;44.30;;;;;;;;;;5032488;28;20177;-88
2021/09/13 07:41:25;;;;;;;47.55;30.05;;;19.30;99.90;;;;;;5032633;28;20559;-88
2021/09/13 07:43:51;;;;;;;43.45;29.38;;;19.20;99.90;;;;;;5032487;28;20179;-89
2021/09/13 07:46:17;;;;;;;41.28;26.63;;;19.30;99.90;;;;;;5032184;28;20190;-90
2021/09/13 07:48:42;;;;;;;38.05;25.58;;;19.30;99.90;;;;;;5036341;28;20172;-89
2021/09/13 07:51:08;;;;;;;38.28;25.50;;;;;;;;;;5031835;28;20180;-87
2021/09/13 07:53:34;;;;;;;36.80;24.40;;;19.30;99.90;;;;;;5032002;28;20195;-90
2021/09/13 07:56:00;;;;;;;35.50;27.05;;;19.50;99.90;;;;;;5032552;28;20208;-90
2021/09/13 07:58:26;;;;;;;57.20;43.00;;;;;;;;;;5032144;28;20191;-91
2021/09/13 08:00:52;;;;;;;39.38;27.85;;;19.40;99.90;;;;;;5037232;28;20601;-88
2021/09/13 08:03:18;;;;;;;36.22;25.17;;;;;;;;;;5035124;28;20272;-90
2021/09/13 08:05:44;;;;;;;39.55;27.65;;;;;;;;;;5034968;28;20180;-90
2021/09/13 08:08:12;;;;;;;52.45;26.95;;;19.50;99.90;;;;;;5019027;28;20189;-89
2021/09/13 08:10:38;;;;;;;63.40;51.92;;;;;;;;;;5048034;28;20621;-89
2021/09/13 08:13:03;;;;;;;36.13;27.08;;;19.90;99.90;;;;;;5048023;28;20173;-90
2021/09/13 08:15:29;;;;;;;36.90;28.67;;;;;;;;;;5042670;28;20296;-90
2021/09/13 08:17:58;;;;;;;42.88;32.80;;;20.00;99.90;;;;;;5027945;28;20232;-89
2021/09/13 08:20:24;;;;;;;53.78;42.72;;;;;;;;;;5035092;28;20180;-89
2021/09/13 08:22:50;;;;;;;49.40;36.83;;;;;;;;;;5033884;28;20188;-89
2021/09/13 08:25:15;;;;;;;52.83;35.70;;;;;;;;;;5033438;28;20231;-88
2021/09/13 08:27:41;;;;;;;36.10;26.02;;;;;;;;;;5034016;28;20185;-88
2021/09/13 08:30:07;;;;;;;32.42;23.88;;;19.80;99.90;;;;;;5050334;28;20618;-89
2021/09/13 08:32:34;;;;;;;35.80;22.73;;;;;;;;;;5036591;28;20279;-89
2021/09/13 08:34:59;;;;;;;31.92;22.88;;;20.30;99.90;;;;;;5038858;28;20201;-88
2021/09/13 08:37:25;;;;;;;32.97;24.60;;;;;;;;;;5037271;28;20180;-90
2021/09/13 08:39:51;;;;;;;28.02;22.10;;;19.90;99.90;;;;;;5051024;28;20180;-88
2021/09/13 08:42:17;;;;;;;44.25;35.35;;;19.90;99.90;;;;;;5035101;28;20183;-88
2021/09/13 08:44:46;;;;;;;38.17;26.63;;;19.80;99.90;;;;;;5036977;28;20184;-88
2021/09/13 08:47:22;;;;;;;52.40;40.97;;;19.90;99.90;;;;;;5017845;28;20180;-88
2021/09/13 08:49:48;;;;;;;36.33;27.02;;;19.90;99.90;;;;;;5033766;28;20167;-88
2021/09/13 08:52:14;;;;;;;33.17;25.85;;;20.00;99.90;;;;;;5033738;28;20185;-88
2021/09/13 08:54:40;;;;;;;39.53;30.27;;;;;;;;;;5049394;28;20262;-87
2021/09/13 08:57:07;;;;;;;65.47;55.92;;;20.20;99.90;;;;;;5034551;28;20181;-88
2021/09/13 08:59:37;;;;;;;47.60;35.90;;;20.30;99.90;;;;;;5034194;28;20181;-87
2021/09/13 09:02:04;;;;;;;46.60;30.63;;;20.40;99.90;;;;;;5034583;28;20227;-87
2021/09/13 09:04:30;;;;;;;29.98;23.77;;;20.60;99.90;;;;;;5034130;28;20263;-87
2021/09/13 09:07:07;;;;;;;35.25;24.65;;;20.70;99.90;;;;;;5016957;28;20263;-87
2021/09/13 09:09:33;;;;;;;25.55;20.10;;;20.60;99.90;;;;;;5033744;28;20633;-87
2021/09/13 09:12:09;;;;;;;25.23;19.27;;;20.60;99.90;;;;;;5017083;28;20181;-90
2021/09/13 09:14:44;;;;;;;23.25;17.83;;;20.70;99.90;;;;;;5033406;28;20203;-88
2021/09/13 09:17:23;;;;;;;24.60;18.77;;;20.90;99.90;;;;;;5049699;28;20231;-89
2021/09/13 09:20:13;;;;;;;22.25;17.67;;;21.20;99.90;;;;;;5036681;28;20176;-89
2021/09/13 09:22:40;;;;;;;27.42;19.05;;;21.30;99.90;;;;;;5036028;28;20641;-90
2021/09/13 09:25:08;;;;;;;21.15;15.55;;;21.30;99.90;;;;;;5035936;28;20663;-89
2021/09/13 09:28:00;;;;;;;18.17;14.70;;;21.30;99.90;;;;;;5035664;28;20199;-90
2021/09/13 09:30:36;;;;;;;23.92;17.42;;;21.30;99.90;;;;;;5037168;28;20164;-89
2021/09/13 09:33:14;;;;;;;21.48;12.48;;;21.20;99.90;;;;;;5034212;28;20275;-88
2021/09/13 09:35:48;;;;;;;15.02;11.57;;;21.10;99.90;;;;;;5033409;28;20819;-88
2021/09/13 09:38:40;;;;;;;15.98;12.48;;;21.10;99.90;;;;;;5032506;28;20184;-88
2021/09/13 09:41:10;;;;;;;21.38;13.18;;;21.10;99.90;;;;;;5032154;28;20226;-89
2021/09/13 09:44:00;;;;;;;15.88;13.10;;;21.20;99.90;;;;;;5034091;28;20204;-87
2021/09/13 09:46:43;;;;;;;13.63;10.23;;;21.30;99.90;;;;;;5032130;28;20505;-89
2021/09/13 09:49:11;;;;;;;13.88;10.90;;;21.30;99.90;;;;;;5033072;28;20645;-88
2021/09/13 09:51:44;;;;;;;17.70;11.40;;;21.30;99.90;;;;;;5034903;28;20169;-88
2021/09/13 09:54:29;;;;;;;17.02;11.25;;;21.20;99.90;;;;;;5015659;28;20164;-88
2021/09/13 09:57:06;;;;;;;14.48;11.20;;;21.20;99.90;;;;;;5015359;28;20174;-89
2021/09/13 09:59:43;;;;;;;9.40;7.72;;;21.20;99.90;;;;;;5012417;28;20550;-89
2021/09/13 10:02:16;;;;;;;12.52;9.93;;;21.20;99.90;;;;;;5013015;28;20180;-88
2021/09/13 10:04:43;;;;;;;10.15;8.80;;;21.20;99.90;;;;;;5012492;28;20177;-88
2021/09/13 10:07:13;;;;;;;11.60;8.32;;;21.60;99.90;;;;;;5012625;28;20181;-89
2021/09/13 10:09:39;;;;;;;16.92;9.70;;;21.40;99.90;;;;;;5013712;28;20157;-89
2021/09/13 10:12:05;;;;;;;10.77;9.20;;;21.70;99.90;;;;;;5014441;28;20283;-90
2021/09/13 10:14:33;;;;;;;14.27;10.32;;;21.90;99.90;;;;;;5030459;28;20566;-90
2021/09/13 10:16:59;;;;;;;12.13;8.55;;;;;;;;;;5032914;28;20262;-89
2021/09/13 10:19:26;;;;;;;10.95;7.25;;;21.90;99.90;;;;;;5048609;28;20645;-89
2021/09/13 10:21:53;;;;;;;8.60;7.32;;;21.80;99.90;;;;;;5031537;28;20271;-89
2021/09/13 10:24:22;;;;;;;10.10;7.80;;;21.80;99.90;;;;;;5033177;28;20192;-89
2021/09/13 10:26:50;;;;;;;12.32;8.55;;;21.90;99.90;;;;;;5032643;28;20185;-90
2021/09/13 10:29:18;;;;;;;13.52;10.93;;;21.90;99.90;;;;;;5032782;28;20259;-90
2021/09/13 10:31:47;;;;;;;19.33;12.48;;;21.90;99.90;;;;;;5031308;28;20176;-89
2021/09/13 10:34:24;;;;;;;14.82;13.10;;;21.80;99.90;;;;;;5033344;28;20214;-89
2021/09/13 10:36:58;;;;;;;18.63;12.45;;;21.80;99.90;;;;;;5030373;28;20187;-90
2021/09/13 10:39:49;;;;;;;13.63;11.55;;;21.70;99.90;;;;;;5029016;28;20175;-89
2021/09/13 10:42:41;;;;;;;12.77;11.48;;;21.60;99.90;;;;;;5026851;28;20651;-89
2021/09/13 10:45:14;;;;;;;18.13;15.60;;;21.60;99.90;;;;;;5024770;28;20200;-89
2021/09/13 10:47:43;;;;;;;20.73;14.48;;;21.50;99.90;;;;;;5030945;28;20664;-91
2021/09/13 10:50:20;;;;;;;14.63;12.73;;;21.40;99.90;;;;;;5031370;28;20180;-90
2021/09/13 10:52:48;;;;;;;13.13;11.05;;;21.40;99.90;;;;;;5022170;28;20335;-90
2021/09/13 10:55:41;;;;;;;17.00;12.27;;;21.40;99.90;;;;;;5021764;28;20239;-88
2021/09/13 10:58:34;;;;;;;16.15;10.38;;;21.40;99.90;;;;;;5031240;28;20173;-88
2021/09/13 11:01:03;;;;;;;11.30;8.93;;;21.50;99.90;;;;;;5032982;28;20169;-86
2021/09/13 11:03:31;;;;;;;11.38;9.32;;;21.50;99.90;;;;;;5015807;28;20235;-88
2021/09/13 11:06:04;;;;;;;10.35;8.77;;;21.50;99.90;;;;;;5012931;28;20279;-86
2021/09/13 11:08:30;;;;;;;12.13;9.48;;;21.60;99.90;;;;;;5013120;28;20182;-88
2021/09/13 11:10:56;;;;;;;12.05;8.40;;;21.80;99.90;;;;;;5013886;28;20188;-91
2021/09/13 11:13:22;;;;;;;11.65;8.07;;;22.00;99.90;;;;;;5014673;28;20177;-88
2021/09/13 11:15:48;;;;;;;10.10;8.68;;;22.00;99.90;;;;;;5013390;28;20224;-87
2021/09/13 11:18:37;;;;;;;10.55;8.50;;;22.00;99.90;;;;;;5013249;28;20233;-87
2021/09/13 11:21:21;;;;;;;9.02;7.57;;;22.10;99.90;;;;;;5012388;28;20180;-89
2021/09/13 11:23:48;;;;;;;8.55;7.13;;;22.10;99.90;;;;;;5022083;28;20192;-87
2021/09/13 11:26:19;;;;;;;9.93;8.75;;;22.10;99.90;;;;;;5020915;28;20176;-89
2021/09/13 11:28:56;;;;;;;9.02;8.13;;;22.00;99.90;;;;;;5027075;28;20161;-84
2021/09/13 11:31:30;;;;;;;12.35;8.38;;;21.80;99.90;;;;;;5036276;28;20160;-87
2021/09/13 11:33:56;;;;;;;9.02;7.68;;;21.70;99.90;;;;;;5042799;28;20605;-89
2021/09/13 11:36:27;;;;;;;10.82;8.68;;;21.60;99.90;;;;;;5036212;28;20283;-88
2021/09/13 11:39:08;;;;;;;12.25;9.85;;;21.60;99.90;;;;;;5036467;28;20204;-90
2021/09/13 11:41:34;;;;;;;14.32;11.32;;;21.50;99.90;;;;;;5038932;28;20172;-89
2021/09/13 11:44:02;;;;;;;15.63;10.70;;;21.50;99.90;;;;;;5042424;28;20184;-90
2021/09/13 11:46:29;;;;;;;15.95;12.45;;;;;;;;;;5037055;28;20173;-88
2021/09/13 11:49:12;;;;;;;14.75;11.07;;;21.50;99.90;;;;;;5052235;28;20189;-89
2021/09/13 11:52:00;;;;;;;15.48;10.35;;;21.80;99.90;;;;;;5038070;28;20157;-85
2021/09/13 11:54:26;;;;;;;9.98;8.98;;;21.60;99.90;;;;;;5028979;28;20192;-92
2021/09/13 11:56:52;;;;;;;17.58;9.50;;;21.60;99.90;;;;;;5036660;28;20268;-88
2021/09/13 11:59:25;;;;;;;11.20;8.48;;;21.70;99.90;;;;;;5037721;28;20180;-92
2021/09/13 12:01:59;;;;;;;9.75;7.10;;;21.80;99.90;;;;;;5038043;28;20184;-87
2021/09/13 12:04:25;;;;;;;10.18;7.05;;;;;;;;;;5250648;22;20401;-83
2021/09/13 12:07:12;;;;;;;11.27;7.53;;;22.10;99.90;;;;;;5034970;28;20254;-89
2021/09/13 12:09:41;;;;;;;11.15;7.50;;;22.10;99.90;;;;;;5036657;28;20199;-88
2021/09/13 12:12:11;;;;;;;13.05;10.75;;;22.10;99.90;;;;;;5033570;28;20192;-90
2021/09/13 12:14:39;;;;;;;18.10;12.77;;;22.20;99.90;;;;;;5033227;28;20191;-87
2021/09/13 12:17:09;;;;;;;17.52;14.30;;;22.20;99.90;;;;;;5033784;28;20223;-88
2021/09/13 12:19:40;;;;;;;16.02;13.77;;;22.20;99.90;;;;;;5035244;28;20187;-90
2021/09/13 12:22:07;;;;;;;22.77;14.60;;;22.20;99.90;;;;;;5033539;28;20204;-89
2021/09/13 12:24:33;;;;;;;20.83;14.63;;;22.30;99.90;;;;;;5034633;28;20271;-91
2021/09/13 12:27:15;;;;;;;16.92;14.43;;;22.40;99.90;;;;;;5040208;28;20188;-88
2021/09/13 12:30:01;;;;;;;21.80;13.60;;;22.40;99.90;;;;;;5045695;28;20173;-88
2021/09/13 12:32:32;;;;;;;16.00;13.05;;;22.50;99.90;;;;;;5040612;28;20219;-89
2021/09/13 12:35:04;;;;;;;17.05;13.20;;;22.60;99.90;;;;;;5039744;28;20206;-89
2021/09/13 12:37:37;;;;;;;15.23;12.70;;;22.70;99.90;;;;;;5042370;28;20179;-88
2021/09/13 12:40:11;;;;;;;17.42;13.50;;;23.20;99.90;;;;;;5045984;28;20240;-87
2021/09/13 12:42:50;;;;;;;20.23;14.65;;;23.20;99.90;;;;;;5048258;28;20184;-89
2021/09/13 12:45:16;;;;;;;19.05;14.18;;;23.40;99.90;;;;;;5022945;28;20271;-88
2021/09/13 12:47:52;;;;;;;18.25;14.20;;;23.60;99.90;;;;;;5034995;28;20203;-89
2021/09/13 12:50:32;;;;;;;17.35;12.32;;;23.70;99.90;;;;;;5041836;28;20187;-89
2021/09/13 12:53:01;;;;;;;18.98;16.55;;;20.80;99.90;;;;;;5045838;28;20630;-88
2021/09/13 12:55:29;;;;;;;17.40;13.77;;;23.30;99.90;;;;;;5047627;28;20192;-87
2021/09/13 12:57:55;;;;;;;16.83;11.82;;;23.10;99.90;;;;;;5044676;28;20195;-86